Albatros — C6CN4 — position and weather

sailwx.info

Track history (hours):
 
Tides and Currents Weather Stations Pressure Air Temp Water Temp Dewpoint Dewpoint Depression Visibility Wind Speed Wind Dir Waves Ship Positions

Albatros

Last reported at 2017-Apr-24 21:46 UTC. Time now 2017-Apr-26 11:53 UTC.
Position N 37°14' E 024°48'.

Length 205.5 m; beam 25.2 m; draft 7.6 m.

Type: Passenger vessel. MMSI: 308784000.

Date/timePositionNaut miles runAvg speedWind from/ knotsBaromVisibWave heightAir tempDewpointWater temp
2017-Apr-24 21:46N 37°14' E 024°48'416.9
2017-Apr-24 21:30N 37°17' E 024°52'816.8
2017-Apr-24 21:00N 37°22' E 025°00'816.7
2017-Apr-24 20:30N 37°27' E 025°09'815.8
2017-Apr-24 20:00N 37°27' E 025°19'1 1.0
2017-Apr-24 19:29N 37°27' E 025°19'0 0.0
2017-Apr-24 18:59N 37°27' E 025°19'0 0.0
2017-Apr-24 18:29N 37°27' E 025°19'0 0.0
2017-Apr-24 17:59N 37°27' E 025°19'0 0.0
2017-Apr-24 17:29N 37°27' E 025°19'0 0.1
2017-Apr-24 17:00N 37°27' E 025°19'0 0.1
2017-Apr-24 16:30N 37°27' E 025°19'0 0.1
2017-Apr-24 16:00N 37°27' E 025°19'0 0.2
2017-Apr-24 15:31N 37°27' E 025°19'4 8.1
2017-Apr-24 15:00N 37°27' E 025°14'611.2
2017-Apr-24 14:31N 37°23' E 025°11'1615.9
2017-Apr-24 13:31N 37°08' E 025°19'815.9
2017-Apr-24 13:01N 37°00' E 025°17'  
2017-Apr-21 21:53N 35°60' E 014°45'616.5
2017-Apr-21 21:30N 35°57' E 014°39'7 0.2
2017-Apr-20 13:29N 35°53' E 014°31'4 7.8
2017-Apr-20 13:00N 35°57' E 014°30'816.0
2017-Apr-20 12:30N 36°02' E 014°22'2 4.4
2017-Apr-20 12:00N 36°01' E 014°19'0 0.2
2017-Apr-20 11:30N 36°01' E 014°19'0 0.0
2017-Apr-20 11:00N 36°01' E 014°19'0 0.0
2017-Apr-20 10:30N 36°01' E 014°19'0 0.0
2017-Apr-20 10:00N 36°01' E 014°19'0 0.0
2017-Apr-20 09:30N 36°01' E 014°19'0 0.1
2017-Apr-20 09:00N 36°01' E 014°19'0 0.0
2017-Apr-20 08:30N 36°01' E 014°19'0 0.1
2017-Apr-20 08:00N 36°01' E 014°19'0 0.0
2017-Apr-20 07:30N 36°01' E 014°19'0 0.1
2017-Apr-20 07:00N 36°01' E 014°19'0 0.0
2017-Apr-20 06:30N 36°01' E 014°19'0 0.1
2017-Apr-20 06:00N 36°01' E 014°19'0 0.4
2017-Apr-20 05:30N 36°01' E 014°19'0 0.1
2017-Apr-20 05:00N 36°01' E 014°19'4 8.2
2017-Apr-20 04:30N 36°03' E 014°23'510.2
2017-Apr-20 04:00N 36°06' E 014°29'510.8
2017-Apr-20 03:30N 36°08' E 014°34'510.8
2017-Apr-20 03:00N 36°11' E 014°40'610.8
2017-Apr-20 02:30N 36°14' E 014°46'90 9.3
2017-Apr-19 16:50N 37°37' E 015°31'310.1
2017-Apr-19 16:30N 37°39' E 015°28'5 9.8
2017-Apr-19 16:00N 37°43' E 015°24'510.0
2017-Apr-19 15:30N 37°47' E 015°20'4 6.9
2017-Apr-19 14:58N 37°50' E 015°17'0 0.1
2017-Apr-19 14:22N 37°50' E 015°17'0 0.0
2017-Apr-19 13:22N 37°50' E 015°17'0 0.0
2017-Apr-19 12:58N 37°50' E 015°17'0 0.0
2017-Apr-19 12:22N 37°50' E 015°17'0 0.0
2017-Apr-19 11:58N 37°50' E 015°17'0 0.0
2017-Apr-19 10:49N 37°50' E 015°17'0 0.1
2017-Apr-19 10:25N 37°50' E 015°17'0 0.0
2017-Apr-19 09:58N 37°50' E 015°17'0 0.0
2017-Apr-19 09:25N 37°50' E 015°17'0 0.1
2017-Apr-19 08:19N 37°50' E 015°17'0 0.0
2017-Apr-19 07:25N 37°50' E 015°17'0 0.0
2017-Apr-19 06:34N 37°50' E 015°17'0 0.0
2017-Apr-19 06:28N 37°50' E 015°17'0 0.0
2017-Apr-19 05:46N 37°50' E 015°17'0 0.1
2017-Apr-19 05:28N 37°50' E 015°17'0 0.1
2017-Apr-19 04:55N 37°50' E 015°17'1 1.6
2017-Apr-19 04:30N 37°50' E 015°18'510.3
2017-Apr-19 04:00N 37°50' E 015°24'5 9.5
2017-Apr-19 03:30N 37°50' E 015°30'4 7.4
2017-Apr-19 03:00N 37°53' E 015°32'4 8.6
2017-Apr-19 02:30N 37°58' E 015°32'5 9.0
2017-Apr-19 02:00N 38°02' E 015°33'5 9.7
2017-Apr-19 01:30N 38°07' E 015°34'612.4
2017-Apr-19 01:00N 38°13' E 015°36'612.6
2017-Apr-19 00:30N 38°18' E 015°40'612.8
2017-Apr-19 00:00N 38°24' E 015°36'713.8
2017-Apr-18 23:30N 38°30' E 015°31'714.1
2017-Apr-18 23:01N 38°36' E 015°27'714.0
2017-Apr-18 22:30N 38°42' E 015°22'713.7
2017-Apr-18 21:59N 38°48' E 015°18'611.4
2017-Apr-18 21:29N 38°48' E 015°10'612.5
2017-Apr-18 21:00N 38°42' E 015°11'816.3
2017-Apr-18 20:31N 38°34' E 015°12'816.6
2017-Apr-18 20:00N 38°26' E 015°14'816.5
2017-Apr-18 19:30N 38°18' E 015°16'5 9.9
2017-Apr-18 19:00N 38°13' E 015°15'0 0.3
2017-Apr-18 18:29N 38°13' E 015°15'0 0.0
2017-Apr-18 17:59N 38°13' E 015°15'0 0.0
2017-Apr-18 17:29N 38°13' E 015°15'0 0.0
2017-Apr-18 16:59N 38°13' E 015°15'0 0.0
2017-Apr-18 16:29N 38°13' E 015°15'0 0.0
2017-Apr-18 15:59N 38°13' E 015°15'0 0.0
2017-Apr-18 15:29N 38°13' E 015°15'0 0.0
2017-Apr-18 14:59N 38°13' E 015°15'0 0.0
2017-Apr-18 14:29N 38°13' E 015°15'0 0.0
2017-Apr-18 13:29N 38°13' E 015°15'0 0.0
2017-Apr-18 12:59N 38°13' E 015°15'0 0.0
2017-Apr-18 12:29N 38°13' E 015°15'0 0.0
2017-Apr-18 11:59N 38°13' E 015°15'0 0.0
2017-Apr-18 11:29N 38°13' E 015°15'0 0.0
2017-Apr-18 10:59N 38°13' E 015°15'0 0.0
2017-Apr-18 10:29N 38°13' E 015°15'0 0.0
2017-Apr-18 09:59N 38°13' E 015°15'0 0.0
2017-Apr-18 09:29N 38°13' E 015°15'0 0.0
2017-Apr-18 08:59N 38°13' E 015°15'0 0.0
2017-Apr-18 08:29N 38°13' E 015°15'0 0.0
2017-Apr-18 07:59N 38°13' E 015°15'0 0.0
2017-Apr-18 07:29N 38°13' E 015°15'0 0.0
2017-Apr-18 06:59N 38°13' E 015°15'0 0.0
2017-Apr-18 06:29N 38°13' E 015°15'0 0.0
2017-Apr-18 06:00N 38°13' E 015°15'2 4.3
2017-Apr-18 05:30N 38°15' E 015°16'816.7
2017-Apr-18 05:00N 38°23' E 015°17'815.1
2017-Apr-18 04:30N 38°25' E 015°08'815.8
2017-Apr-18 04:00N 38°28' E 014°58'0 0.2
2017-Apr-18 01:31N 38°28' E 014°58'0 0.0
2017-Apr-17 22:49N 38°28' E 014°58'0 0.0
2017-Apr-17 22:07N 38°28' E 014°58'0 0.0
2017-Apr-17 20:07N 38°28' E 014°58'0 0.0
2017-Apr-17 16:07N 38°28' E 014°58'0 0.2
2017-Apr-17 15:55N 38°28' E 014°58'0 0.1
2017-Apr-17 15:25N 38°28' E 014°58'0 0.0
2017-Apr-17 11:55N 38°28' E 014°58'0 0.0
2017-Apr-17 11:19N 38°28' E 014°58'0 0.1
2017-Apr-17 10:49N 38°28' E 014°58'0 0.7
2017-Apr-17 10:30N 38°28' E 014°58'3 7.1
2017-Apr-17 10:00N 38°30' E 015°01'510.5
2017-Apr-17 09:30N 38°36' E 015°02'713.3
2017-Apr-17 08:57N 38°42' E 015°06'  
Track history (hours):
 
Tides and Currents Weather Stations Pressure Air Temp Water Temp Dewpoint Dewpoint Depression Visibility Wind Speed Wind Dir Waves Ship Positions

Albatros

Last reported at 2017-Apr-24 21:46 UTC. Time now 2017-Apr-26 11:53 UTC.
Position N 37°14' E 024°48'.

Length 205.5 m; beam 25.2 m; draft 7.6 m.

Type: Passenger vessel. MMSI: 308784000.

Date/timePositionNaut miles runAvg speedWind from/ knotsBaromVisibWave heightAir tempDewpointWater temp
2017-Apr-24 21:46N 37°14' E 024°48'416.9
2017-Apr-24 21:30N 37°17' E 024°52'816.8
2017-Apr-24 21:00N 37°22' E 025°00'816.7
2017-Apr-24 20:30N 37°27' E 025°09'815.8
2017-Apr-24 20:00N 37°27' E 025°19'1 1.0
2017-Apr-24 19:29N 37°27' E 025°19'0 0.0
2017-Apr-24 18:59N 37°27' E 025°19'0 0.0
2017-Apr-24 18:29N 37°27' E 025°19'0 0.0
2017-Apr-24 17:59N 37°27' E 025°19'0 0.0
2017-Apr-24 17:29N 37°27' E 025°19'0 0.1
2017-Apr-24 17:00N 37°27' E 025°19'0 0.1
2017-Apr-24 16:30N 37°27' E 025°19'0 0.1
2017-Apr-24 16:00N 37°27' E 025°19'0 0.2
2017-Apr-24 15:31N 37°27' E 025°19'4 8.1
2017-Apr-24 15:00N 37°27' E 025°14'611.2
2017-Apr-24 14:31N 37°23' E 025°11'1615.9
2017-Apr-24 13:31N 37°08' E 025°19'815.9
2017-Apr-24 13:01N 37°00' E 025°17'  
2017-Apr-21 21:53N 35°60' E 014°45'616.5
2017-Apr-21 21:30N 35°57' E 014°39'7 0.2
2017-Apr-20 13:29N 35°53' E 014°31'4 7.8
2017-Apr-20 13:00N 35°57' E 014°30'816.0
2017-Apr-20 12:30N 36°02' E 014°22'2 4.4
2017-Apr-20 12:00N 36°01' E 014°19'0 0.2
2017-Apr-20 11:30N 36°01' E 014°19'0 0.0
2017-Apr-20 11:00N 36°01' E 014°19'0 0.0
2017-Apr-20 10:30N 36°01' E 014°19'0 0.0
2017-Apr-20 10:00N 36°01' E 014°19'0 0.0
2017-Apr-20 09:30N 36°01' E 014°19'0 0.1
2017-Apr-20 09:00N 36°01' E 014°19'0 0.0
2017-Apr-20 08:30N 36°01' E 014°19'0 0.1
2017-Apr-20 08:00N 36°01' E 014°19'0 0.0
2017-Apr-20 07:30N 36°01' E 014°19'0 0.1
2017-Apr-20 07:00N 36°01' E 014°19'0 0.0
2017-Apr-20 06:30N 36°01' E 014°19'0 0.1
2017-Apr-20 06:00N 36°01' E 014°19'0 0.4
2017-Apr-20 05:30N 36°01' E 014°19'0 0.1
2017-Apr-20 05:00N 36°01' E 014°19'4 8.2
2017-Apr-20 04:30N 36°03' E 014°23'510.2
2017-Apr-20 04:00N 36°06' E 014°29'510.8
2017-Apr-20 03:30N 36°08' E 014°34'510.8
2017-Apr-20 03:00N 36°11' E 014°40'610.8
2017-Apr-20 02:30N 36°14' E 014°46'90 9.3
2017-Apr-19 16:50N 37°37' E 015°31'310.1
2017-Apr-19 16:30N 37°39' E 015°28'5 9.8
2017-Apr-19 16:00N 37°43' E 015°24'510.0
2017-Apr-19 15:30N 37°47' E 015°20'4 6.9
2017-Apr-19 14:58N 37°50' E 015°17'0 0.1
2017-Apr-19 14:22N 37°50' E 015°17'0 0.0
2017-Apr-19 13:22N 37°50' E 015°17'0 0.0
2017-Apr-19 12:58N 37°50' E 015°17'0 0.0
2017-Apr-19 12:22N 37°50' E 015°17'0 0.0
2017-Apr-19 11:58N 37°50' E 015°17'0 0.0
2017-Apr-19 10:49N 37°50' E 015°17'0 0.1
2017-Apr-19 10:25N 37°50' E 015°17'0 0.0
2017-Apr-19 09:58N 37°50' E 015°17'0 0.0
2017-Apr-19 09:25N 37°50' E 015°17'0 0.1
2017-Apr-19 08:19N 37°50' E 015°17'0 0.0
2017-Apr-19 07:25N 37°50' E 015°17'0 0.0
2017-Apr-19 06:34N 37°50' E 015°17'0 0.0
2017-Apr-19 06:28N 37°50' E 015°17'0 0.0
2017-Apr-19 05:46N 37°50' E 015°17'0 0.1
2017-Apr-19 05:28N 37°50' E 015°17'0 0.1
2017-Apr-19 04:55N 37°50' E 015°17'1 1.6
2017-Apr-19 04:30N 37°50' E 015°18'510.3
2017-Apr-19 04:00N 37°50' E 015°24'5 9.5
2017-Apr-19 03:30N 37°50' E 015°30'4 7.4
2017-Apr-19 03:00N 37°53' E 015°32'4 8.6
2017-Apr-19 02:30N 37°58' E 015°32'5 9.0
2017-Apr-19 02:00N 38°02' E 015°33'5 9.7
2017-Apr-19 01:30N 38°07' E 015°34'612.4
2017-Apr-19 01:00N 38°13' E 015°36'612.6
2017-Apr-19 00:30N 38°18' E 015°40'612.8
2017-Apr-19 00:00N 38°24' E 015°36'713.8
2017-Apr-18 23:30N 38°30' E 015°31'714.1
2017-Apr-18 23:01N 38°36' E 015°27'714.0
2017-Apr-18 22:30N 38°42' E 015°22'713.7
2017-Apr-18 21:59N 38°48' E 015°18'611.4
2017-Apr-18 21:29N 38°48' E 015°10'612.5
2017-Apr-18 21:00N 38°42' E 015°11'816.3
2017-Apr-18 20:31N 38°34' E 015°12'816.6
2017-Apr-18 20:00N 38°26' E 015°14'816.5
2017-Apr-18 19:30N 38°18' E 015°16'5 9.9
2017-Apr-18 19:00N 38°13' E 015°15'0 0.3
2017-Apr-18 18:29N 38°13' E 015°15'0 0.0
2017-Apr-18 17:59N 38°13' E 015°15'0 0.0
2017-Apr-18 17:29N 38°13' E 015°15'0 0.0
2017-Apr-18 16:59N 38°13' E 015°15'0 0.0
2017-Apr-18 16:29N 38°13' E 015°15'0 0.0
2017-Apr-18 15:59N 38°13' E 015°15'0 0.0
2017-Apr-18 15:29N 38°13' E 015°15'0 0.0
2017-Apr-18 14:59N 38°13' E 015°15'0 0.0
2017-Apr-18 14:29N 38°13' E 015°15'0 0.0
2017-Apr-18 13:29N 38°13' E 015°15'0 0.0
2017-Apr-18 12:59N 38°13' E 015°15'0 0.0
2017-Apr-18 12:29N 38°13' E 015°15'0 0.0
2017-Apr-18 11:59N 38°13' E 015°15'0 0.0
2017-Apr-18 11:29N 38°13' E 015°15'0 0.0
2017-Apr-18 10:59N 38°13' E 015°15'0 0.0
2017-Apr-18 10:29N 38°13' E 015°15'0 0.0
2017-Apr-18 09:59N 38°13' E 015°15'0 0.0
2017-Apr-18 09:29N 38°13' E 015°15'0 0.0
2017-Apr-18 08:59N 38°13' E 015°15'0 0.0
2017-Apr-18 08:29N 38°13' E 015°15'0 0.0
2017-Apr-18 07:59N 38°13' E 015°15'0 0.0
2017-Apr-18 07:29N 38°13' E 015°15'0 0.0
2017-Apr-18 06:59N 38°13' E 015°15'0 0.0
2017-Apr-18 06:29N 38°13' E 015°15'0 0.0
2017-Apr-18 06:00N 38°13' E 015°15'2 4.3
2017-Apr-18 05:30N 38°15' E 015°16'816.7
2017-Apr-18 05:00N 38°23' E 015°17'815.1
2017-Apr-18 04:30N 38°25' E 015°08'815.8
2017-Apr-18 04:00N 38°28' E 014°58'0 0.2
2017-Apr-18 01:31N 38°28' E 014°58'0 0.0
2017-Apr-17 22:49N 38°28' E 014°58'0 0.0
2017-Apr-17 22:07N 38°28' E 014°58'0 0.0
2017-Apr-17 20:07N 38°28' E 014°58'0 0.0
2017-Apr-17 16:07N 38°28' E 014°58'0 0.2
2017-Apr-17 15:55N 38°28' E 014°58'0 0.1
2017-Apr-17 15:25N 38°28' E 014°58'0 0.0
2017-Apr-17 11:55N 38°28' E 014°58'0 0.0
2017-Apr-17 11:19N 38°28' E 014°58'0 0.1
2017-Apr-17 10:49N 38°28' E 014°58'0 0.7
2017-Apr-17 10:30N 38°28' E 014°58'3 7.1
2017-Apr-17 10:00N 38°30' E 015°01'510.5
2017-Apr-17 09:30N 38°36' E 015°02'713.3
2017-Apr-17 08:57N 38°42' E 015°06'  

Dump ship's entire track history